Laurence M. Gould — WCX7445 — position and weather

sailwx.info

Track history (hours):
 
Tides and Currents Weather Stations Pressure Air Temp Water Temp Dewpoint Dewpoint Depression Visibility Wind Speed Wind Dir Waves Ship Positions

Oceanographic research ship Laurence M. Gould (USA)

Detailed information on ship capabilities available from University of Delaware's Ocean Information Center.

More information available from US FCC via Universal Licensing System and Coast Guard Vessel Documentation Center.

Last reported at 2014-Jul-24 18:00 UTC. Time now 2014-Jul-24 19:18 UTC.
Position S 64°36' W 063°54'.

Type: Other ship. MMSI: 368138000.

Wind from 140 at 8 knots

Barometer 1006.4 mb
Water temperature 0.9 ° C

Date/timePositionNaut miles runAvg speedWind from/ knotsBaromVisibWave heightAir tempDewpointWater temp
2014-Jul-24 18:00S 64°36' W 063°54'0 0.0 140 / 81006.4 0.9
2014-Jul-24 17:00S 64°36' W 063°54'0 0.0 140 / 81006.4 0.9
2014-Jul-24 16:00S 64°36' W 063°54'0 0.0 140 / 81006.4 0.9
2014-Jul-24 13:00S 64°36' W 063°54'0 0.0 140 / 81006.4 0.9
2014-Jul-24 12:00S 64°36' W 063°54'0 0.0 140 / 81006.4 0.9
2014-Jul-24 10:00S 64°36' W 063°54'0 0.0 140 / 81006.4 0.9
2014-Jul-24 09:00S 64°36' W 063°54'0 0.0 140 / 81006.4 0.9
2014-Jul-24 05:00S 64°36' W 063°54'0 0.0 140 / 81006.4 0.9
2014-Jul-24 03:00S 64°36' W 063°54'0 0.0 140 / 81006.4 0.9
2014-Jul-24 01:00S 64°36' W 063°54'0 0.0 140 / 81006.4 0.9
2014-Jul-24 00:00S 64°36' W 063°54'0 0.0 140 / 81006.4 0.9
2014-Jul-23 23:00S 64°36' W 063°54'0 0.0 140 / 81006.4 0.9
2014-Jul-23 22:00S 64°36' W 063°54'0 0.0 140 / 81006.4 0.9
2014-Jul-23 21:00S 64°36' W 063°54'0 0.0 140 / 81006.4 0.9
2014-Jul-23 19:00S 64°36' W 063°54'0 0.0 140 / 81006.4 0.9
2014-Jul-23 18:00S 64°36' W 063°54'0 0.0 140 / 81006.4 0.9
2014-Jul-23 17:00S 64°36' W 063°54'0 0.0 140 / 81006.4 0.9
2014-Jul-23 16:00S 64°36' W 063°54'0 0.0 140 / 81006.4 0.9
2014-Jul-23 14:00S 64°36' W 063°54'0 0.0 140 / 81006.4 0.9
2014-Jul-23 13:00S 64°36' W 063°54'0 0.0 140 / 81006.4 0.9
2014-Jul-23 12:00S 64°36' W 063°54'0 0.0 140 / 81006.4 0.9
2014-Jul-23 07:00S 64°36' W 063°54'0 0.0 140 / 81006.4 0.9
2014-Jul-23 05:00S 64°36' W 063°54'0 0.0 140 / 81006.4 0.9
2014-Jul-23 04:00S 64°36' W 063°54'0 0.0 140 / 81006.4 0.9
2014-Jul-23 03:00S 64°36' W 063°54'0 0.0 140 / 81006.4 0.9
2014-Jul-23 01:00S 64°36' W 063°54'0 0.0 140 / 81006.4 0.9
2014-Jul-22 20:00S 64°36' W 063°54'0 0.0 140 / 81006.4 0.9
2014-Jul-22 16:00S 64°36' W 063°54'0 0.0 140 / 81006.4 0.9
2014-Jul-22 15:00S 64°36' W 063°54'0 0.0 140 / 81006.4 0.9
2014-Jul-22 14:00S 64°36' W 063°54'0 0.0 140 / 81006.4 0.9
2014-Jul-22 13:00S 64°36' W 063°54'0 0.0 140 / 81006.4 0.9
2014-Jul-22 11:00S 64°36' W 063°54'0 0.0 140 / 81006.4 0.9
2014-Jul-22 09:00S 64°36' W 063°54'0 0.0 140 / 81006.4 0.9
2014-Jul-22 07:00S 64°36' W 063°54'0 0.0 140 / 81006.4 0.9
2014-Jul-22 06:00S 64°36' W 063°54'0 0.0 140 / 81006.4 0.9
2014-Jul-22 05:00S 64°36' W 063°54'0 0.0 140 / 81006.4 0.9
2014-Jul-22 04:00S 64°36' W 063°54'0 0.0 140 / 81006.4 0.9
2014-Jul-22 02:00S 64°36' W 063°54'0 0.0 140 / 81006.4 0.9
2014-Jul-22 01:00S 64°36' W 063°54'0 0.0 140 / 81006.4 0.9
2014-Jul-21 23:00S 64°36' W 063°54'0 0.0 140 / 81006.4 0.9
2014-Jul-21 17:00S 64°36' W 063°54'0 0.0 140 / 81006.4 0.9
2014-Jul-21 16:00S 64°36' W 063°54'0 0.0 140 / 81006.4 0.9
2014-Jul-21 15:00S 64°36' W 063°54'0 0.0 140 / 81006.4 0.9
2014-Jul-21 13:00S 64°36' W 063°54'0 0.0 140 / 81006.4 0.9
2014-Jul-21 11:00S 64°36' W 063°54'0 0.0 140 / 81006.4 0.9
2014-Jul-21 10:00S 64°36' W 063°54'0 0.0 140 / 81006.4 0.9
2014-Jul-21 09:00S 64°36' W 063°54'0 0.0 140 / 81006.4 0.9
2014-Jul-21 07:00S 64°36' W 063°54'0 0.0 140 / 81006.4 0.9
2014-Jul-21 04:00S 64°36' W 063°54'0 0.0 140 / 81006.4 0.9
2014-Jul-21 03:00S 64°36' W 063°54'0 0.0 140 / 81006.4 0.9
2014-Jul-21 02:00S 64°36' W 063°54'0 0.0 140 / 81006.4 0.9
2014-Jul-21 01:00S 64°36' W 063°54'0 0.0 140 / 81006.4 0.9
2014-Jul-21 00:00S 64°36' W 063°54'0 0.0 140 / 81006.4 0.9
2014-Jul-20 23:00S 64°36' W 063°54'0 0.0 140 / 81006.4 0.9
2014-Jul-20 22:00S 64°36' W 063°54'0 0.0 140 / 81006.4 0.9
2014-Jul-20 21:00S 64°36' W 063°54'0 0.0 140 / 81006.4 0.9
2014-Jul-20 20:00S 64°36' W 063°54'0 0.0 140 / 81006.4 0.9
2014-Jul-20 18:00S 64°36' W 063°54'0 0.0 140 / 81006.4 0.9
2014-Jul-20 17:00S 64°36' W 063°54'0 0.0 140 / 81006.4 0.9
2014-Jul-20 16:00S 64°36' W 063°54'12 3.0 140 / 81006.4 0.9
2014-Jul-20 12:00S 64°42' W 064°18'8 7.7 140 / 81006.4 0.9
2014-Jul-20 11:00S 64°42' W 064°36'5 5.1 140 / 81006.4 0.9
2014-Jul-20 10:00S 64°42' W 064°48'5 5.1 140 / 81006.4 0.9
2014-Jul-20 09:00S 64°42' W 065°00'5 5.1 140 / 81006.4 0.9
2014-Jul-20 08:00S 64°42' W 065°12'6 6.0 140 / 81006.4 0.9
2014-Jul-20 07:00S 64°36' W 065°12'7 2.2 140 / 81006.4 0.9
2014-Jul-20 04:00S 64°30' W 065°18'7 1.6 140 / 81006.4 0.9
2014-Jul-20 00:00S 64°36' W 065°24'7 6.5 140 / 81006.4 0.9
2014-Jul-19 23:00S 64°42' W 065°18'0 0.0 140 / 81006.4 0.9
2014-Jul-19 22:00S 64°42' W 065°18'7 6.5 140 / 81006.4 0.9
2014-Jul-19 21:00S 64°36' W 065°24'6 3.0 140 / 81006.4 0.9
2014-Jul-19 19:00S 64°30' W 065°24'0 0.0 140 / 81006.4 0.9
2014-Jul-19 18:00S 64°30' W 065°24'0 0.0 140 / 81006.4 0.9
2014-Jul-19 17:00S 64°30' W 065°24'0 0.0 140 / 81006.4 0.9
2014-Jul-19 15:00S 64°30' W 065°24'6 3.0 140 / 81006.4 0.9
2014-Jul-19 13:00S 64°36' W 065°24'7 6.5 140 / 81006.4 0.9
2014-Jul-19 12:00S 64°42' W 065°18'3 2.6 140 / 81006.4 0.9
2014-Jul-19 11:00S 64°42' W 065°12'0 0.0 140 / 81006.4 0.9
2014-Jul-19 09:00S 64°42' W 065°12'3 1.3 140 / 81006.4 0.9
2014-Jul-19 07:00S 64°42' W 065°18'3 2.6 140 / 81006.4 0.9
2014-Jul-19 06:00S 64°42' W 065°12'0 0.0 140 / 81006.4 0.9
2014-Jul-19 05:00S 64°42' W 065°12'3 2.6 140 / 81006.4 0.9
2014-Jul-19 04:00S 64°42' W 065°18'3 0.9 140 / 81006.4 0.9
2014-Jul-19 01:00S 64°42' W 065°12'0 0.0 140 / 81006.4 0.9
2014-Jul-19 00:00S 64°42' W 065°12'3 2.6 140 / 81006.4 0.9
2014-Jul-18 23:00S 64°42' W 065°06'13 6.4 140 / 81006.4 0.9
2014-Jul-18 21:00S 64°42' W 064°36'5 5.1 140 / 81006.4 0.9
2014-Jul-18 20:00S 64°42' W 064°24'5 5.1 140 / 81006.4 0.9
2014-Jul-18 19:00S 64°42' W 064°12'5 5.1 140 / 81006.4 0.9
2014-Jul-18 18:00S 64°42' W 064°00'5 5.1 140 / 81006.4 0.9
2014-Jul-18 17:00S 64°42' W 063°48'10 5.1 140 / 81006.4 0.9
2014-Jul-18 15:00S 64°42' W 063°24'3 1.3 140 / 81006.4 0.9
2014-Jul-18 13:00S 64°42' W 063°30'5 5.1 140 / 81006.4 0.9
2014-Jul-18 12:00S 64°42' W 063°42'3 2.6 140 / 81006.4 0.9
2014-Jul-18 11:00S 64°42' W 063°36'7 6.5 140 / 81006.4 0.9
2014-Jul-18 10:00S 64°48' W 063°30'8 7.9 140 / 81006.4 0.9
2014-Jul-18 09:00S 64°42' W 063°42'5 5.1 140 / 81006.4 0.9
2014-Jul-18 08:00S 64°42' W 063°54'5 5.1 140 / 81006.4 0.9
2014-Jul-18 07:00S 64°42' W 063°42'5 5.1 140 / 81006.4 0.9
2014-Jul-18 06:00S 64°42' W 063°30'3 2.6 140 / 81006.4 0.9
2014-Jul-18 05:00S 64°42' W 063°24'7 6.5 140 / 81006.4 0.9
2014-Jul-18 04:00S 64°36' W 063°18'3 2.6 140 / 81006.4 0.9
2014-Jul-18 03:00S 64°36' W 063°12'3 2.6 140 / 81006.4 0.9
2014-Jul-18 02:00S 64°36' W 063°18'3 2.6 140 / 81006.4 0.9
2014-Jul-18 01:00S 64°36' W 063°24'6 3.0 140 / 81006.4 0.9
2014-Jul-17 23:00S 64°42' W 063°24'0 0.0 170 / 111006.2 0.9
2014-Jul-17 21:00S 64°42' W 063°24'0 0.0 160 / 91006.3 1.0
2014-Jul-17 20:00S 64°42' W 063°24'3 1.3 260 / 131006.3 0.9
2014-Jul-17 18:00S 64°42' W 063°30'0 0.0 250 / 151005.1 0.9
2014-Jul-17 17:00S 64°42' W 063°30'0 0.0 170 / 141004.7 0.9
2014-Jul-17 16:00S 64°42' W 063°30'0 0.0 160 / 171004.1 0.8
2014-Jul-17 15:00S 64°42' W 063°30'5 5.1 240 / 41003.6 0.8
2014-Jul-17 14:00S 64°42' W 063°42'10 9.7 220 / 271002.7 0.8
2014-Jul-17 13:00S 64°48' W 063°24'14 4.7 250 / 301000.5 0.4
2014-Jul-17 10:00S 64°42' W 063°54'8 7.7 180 / 181001.4 0.9
2014-Jul-17 09:00S 64°42' W 063°36'10 9.8 230 / 25999.8 -9.4 0.8
2014-Jul-17 08:00S 64°36' W 063°18'8 7.7 220 / 28998.9 -8.3 0.6
2014-Jul-17 07:00S 64°36' W 063°00'3 2.6 230 / 22997.0 -8.8 0.5
2014-Jul-17 06:00S 64°36' W 062°54'3 1.3 230 / 34995.9 -8.0 0.4
2014-Jul-17 04:00S 64°36' W 063°00'3 2.6 230 / 25994.5 -6.5 0.4
2014-Jul-17 03:00S 64°36' W 062°54'0 0.0 220 / 29993.1 -5.8 0.4
2014-Jul-17 02:00S 64°36' W 062°54'14 7.1 220 / 25993.2 -5.5 0.4
2014-Jul-17 00:00S 64°48' W 063°12'8 7.9 210 / 23991.3 -5.7 0.5
2014-Jul-16 23:00S 64°42' W 063°00'7 6.5 230 / 43987.2 -5.4 0.5
2014-Jul-16 22:00S 64°36' W 062°54'5 5.1 200 / 28986.8 -2.7 0.4
2014-Jul-16 21:00S 64°36' W 063°06'10 9.8 230 / 13986.6 1.3 0.6
2014-Jul-16 20:00S 64°42' W 063°24'3 2.6 300 / 26986.7 0.8 0.6
2014-Jul-16 19:00S 64°42' W 063°30'14 4.7 310 / 32987.5 0.8 0.7
2014-Jul-16 16:00S 64°36' W 063°00'3 2.6 010 / 2989.5 -0.1 0.4
2014-Jul-16 15:00S 64°36' W 062°54'0 0.0 090 / 8991.3 -0.7 0.5
2014-Jul-16 14:00S 64°36' W 062°54'0 0.0 100 / 6992.7 -0.4 0.5
2014-Jul-16 13:00S 64°36' W 062°54'8 1.3 050 / 3994.0 -0.4 0.4
2014-Jul-16 07:00S 64°42' W 063°06'8 2.6 020 / 16998.7 -4.8 0.6
2014-Jul-16 04:00S 64°36' W 062°54'0 0.0 060 / 251000.8 -6.6 0.7
2014-Jul-16 03:00S 64°36' W 062°54'0 0.0 090 / 41001.5 -7.4 0.7
2014-Jul-16 00:00S 64°36' W 062°54'   060 / 61002.0 0.7
Track history (hours):
 
Tides and Currents Weather Stations Pressure Air Temp Water Temp Dewpoint Dewpoint Depression Visibility Wind Speed Wind Dir Waves Ship Positions

Oceanographic research ship Laurence M. Gould (USA)

Detailed information on ship capabilities available from University of Delaware's Ocean Information Center.

More information available from US FCC via Universal Licensing System and Coast Guard Vessel Documentation Center.

Last reported at 2014-Jul-24 18:00 UTC. Time now 2014-Jul-24 19:18 UTC.
Position S 64°36' W 063°54'.

Type: Other ship. MMSI: 368138000.

Wind from 140 at 8 knots

Barometer 1006.4 mb
Water temperature 0.9 ° C

Date/timePositionNaut miles runAvg speedWind from/ knotsBaromVisibWave heightAir tempDewpointWater temp
2014-Jul-24 18:00S 64°36' W 063°54'0 0.0 140 / 81006.4 0.9
2014-Jul-24 17:00S 64°36' W 063°54'0 0.0 140 / 81006.4 0.9
2014-Jul-24 16:00S 64°36' W 063°54'0 0.0 140 / 81006.4 0.9
2014-Jul-24 13:00S 64°36' W 063°54'0 0.0 140 / 81006.4 0.9
2014-Jul-24 12:00S 64°36' W 063°54'0 0.0 140 / 81006.4 0.9
2014-Jul-24 10:00S 64°36' W 063°54'0 0.0 140 / 81006.4 0.9
2014-Jul-24 09:00S 64°36' W 063°54'0 0.0 140 / 81006.4 0.9
2014-Jul-24 05:00S 64°36' W 063°54'0 0.0 140 / 81006.4 0.9
2014-Jul-24 03:00S 64°36' W 063°54'0 0.0 140 / 81006.4 0.9
2014-Jul-24 01:00S 64°36' W 063°54'0 0.0 140 / 81006.4 0.9
2014-Jul-24 00:00S 64°36' W 063°54'0 0.0 140 / 81006.4 0.9
2014-Jul-23 23:00S 64°36' W 063°54'0 0.0 140 / 81006.4 0.9
2014-Jul-23 22:00S 64°36' W 063°54'0 0.0 140 / 81006.4 0.9
2014-Jul-23 21:00S 64°36' W 063°54'0 0.0 140 / 81006.4 0.9
2014-Jul-23 19:00S 64°36' W 063°54'0 0.0 140 / 81006.4 0.9
2014-Jul-23 18:00S 64°36' W 063°54'0 0.0 140 / 81006.4 0.9
2014-Jul-23 17:00S 64°36' W 063°54'0 0.0 140 / 81006.4 0.9
2014-Jul-23 16:00S 64°36' W 063°54'0 0.0 140 / 81006.4 0.9
2014-Jul-23 14:00S 64°36' W 063°54'0 0.0 140 / 81006.4 0.9
2014-Jul-23 13:00S 64°36' W 063°54'0 0.0 140 / 81006.4 0.9
2014-Jul-23 12:00S 64°36' W 063°54'0 0.0 140 / 81006.4 0.9
2014-Jul-23 07:00S 64°36' W 063°54'0 0.0 140 / 81006.4 0.9
2014-Jul-23 05:00S 64°36' W 063°54'0 0.0 140 / 81006.4 0.9
2014-Jul-23 04:00S 64°36' W 063°54'0 0.0 140 / 81006.4 0.9
2014-Jul-23 03:00S 64°36' W 063°54'0 0.0 140 / 81006.4 0.9
2014-Jul-23 01:00S 64°36' W 063°54'0 0.0 140 / 81006.4 0.9
2014-Jul-22 20:00S 64°36' W 063°54'0 0.0 140 / 81006.4 0.9
2014-Jul-22 16:00S 64°36' W 063°54'0 0.0 140 / 81006.4 0.9
2014-Jul-22 15:00S 64°36' W 063°54'0 0.0 140 / 81006.4 0.9
2014-Jul-22 14:00S 64°36' W 063°54'0 0.0 140 / 81006.4 0.9
2014-Jul-22 13:00S 64°36' W 063°54'0 0.0 140 / 81006.4 0.9
2014-Jul-22 11:00S 64°36' W 063°54'0 0.0 140 / 81006.4 0.9
2014-Jul-22 09:00S 64°36' W 063°54'0 0.0 140 / 81006.4 0.9
2014-Jul-22 07:00S 64°36' W 063°54'0 0.0 140 / 81006.4 0.9
2014-Jul-22 06:00S 64°36' W 063°54'0 0.0 140 / 81006.4 0.9
2014-Jul-22 05:00S 64°36' W 063°54'0 0.0 140 / 81006.4 0.9
2014-Jul-22 04:00S 64°36' W 063°54'0 0.0 140 / 81006.4 0.9
2014-Jul-22 02:00S 64°36' W 063°54'0 0.0 140 / 81006.4 0.9
2014-Jul-22 01:00S 64°36' W 063°54'0 0.0 140 / 81006.4 0.9
2014-Jul-21 23:00S 64°36' W 063°54'0 0.0 140 / 81006.4 0.9
2014-Jul-21 17:00S 64°36' W 063°54'0 0.0 140 / 81006.4 0.9
2014-Jul-21 16:00S 64°36' W 063°54'0 0.0 140 / 81006.4 0.9
2014-Jul-21 15:00S 64°36' W 063°54'0 0.0 140 / 81006.4 0.9
2014-Jul-21 13:00S 64°36' W 063°54'0 0.0 140 / 81006.4 0.9
2014-Jul-21 11:00S 64°36' W 063°54'0 0.0 140 / 81006.4 0.9
2014-Jul-21 10:00S 64°36' W 063°54'0 0.0 140 / 81006.4 0.9
2014-Jul-21 09:00S 64°36' W 063°54'0 0.0 140 / 81006.4 0.9
2014-Jul-21 07:00S 64°36' W 063°54'0 0.0 140 / 81006.4 0.9
2014-Jul-21 04:00S 64°36' W 063°54'0 0.0 140 / 81006.4 0.9
2014-Jul-21 03:00S 64°36' W 063°54'0 0.0 140 / 81006.4 0.9
2014-Jul-21 02:00S 64°36' W 063°54'0 0.0 140 / 81006.4 0.9
2014-Jul-21 01:00S 64°36' W 063°54'0 0.0 140 / 81006.4 0.9
2014-Jul-21 00:00S 64°36' W 063°54'0 0.0 140 / 81006.4 0.9
2014-Jul-20 23:00S 64°36' W 063°54'0 0.0 140 / 81006.4 0.9
2014-Jul-20 22:00S 64°36' W 063°54'0 0.0 140 / 81006.4 0.9
2014-Jul-20 21:00S 64°36' W 063°54'0 0.0 140 / 81006.4 0.9
2014-Jul-20 20:00S 64°36' W 063°54'0 0.0 140 / 81006.4 0.9
2014-Jul-20 18:00S 64°36' W 063°54'0 0.0 140 / 81006.4 0.9
2014-Jul-20 17:00S 64°36' W 063°54'0 0.0 140 / 81006.4 0.9
2014-Jul-20 16:00S 64°36' W 063°54'12 3.0 140 / 81006.4 0.9
2014-Jul-20 12:00S 64°42' W 064°18'8 7.7 140 / 81006.4 0.9
2014-Jul-20 11:00S 64°42' W 064°36'5 5.1 140 / 81006.4 0.9
2014-Jul-20 10:00S 64°42' W 064°48'5 5.1 140 / 81006.4 0.9
2014-Jul-20 09:00S 64°42' W 065°00'5 5.1 140 / 81006.4 0.9
2014-Jul-20 08:00S 64°42' W 065°12'6 6.0 140 / 81006.4 0.9
2014-Jul-20 07:00S 64°36' W 065°12'7 2.2 140 / 81006.4 0.9
2014-Jul-20 04:00S 64°30' W 065°18'7 1.6 140 / 81006.4 0.9
2014-Jul-20 00:00S 64°36' W 065°24'7 6.5 140 / 81006.4 0.9
2014-Jul-19 23:00S 64°42' W 065°18'0 0.0 140 / 81006.4 0.9
2014-Jul-19 22:00S 64°42' W 065°18'7 6.5 140 / 81006.4 0.9
2014-Jul-19 21:00S 64°36' W 065°24'6 3.0 140 / 81006.4 0.9
2014-Jul-19 19:00S 64°30' W 065°24'0 0.0 140 / 81006.4 0.9
2014-Jul-19 18:00S 64°30' W 065°24'0 0.0 140 / 81006.4 0.9
2014-Jul-19 17:00S 64°30' W 065°24'0 0.0 140 / 81006.4 0.9
2014-Jul-19 15:00S 64°30' W 065°24'6 3.0 140 / 81006.4 0.9
2014-Jul-19 13:00S 64°36' W 065°24'7 6.5 140 / 81006.4 0.9
2014-Jul-19 12:00S 64°42' W 065°18'3 2.6 140 / 81006.4 0.9
2014-Jul-19 11:00S 64°42' W 065°12'0 0.0 140 / 81006.4 0.9
2014-Jul-19 09:00S 64°42' W 065°12'3 1.3 140 / 81006.4 0.9
2014-Jul-19 07:00S 64°42' W 065°18'3 2.6 140 / 81006.4 0.9
2014-Jul-19 06:00S 64°42' W 065°12'0 0.0 140 / 81006.4 0.9
2014-Jul-19 05:00S 64°42' W 065°12'3 2.6 140 / 81006.4 0.9
2014-Jul-19 04:00S 64°42' W 065°18'3 0.9 140 / 81006.4 0.9
2014-Jul-19 01:00S 64°42' W 065°12'0 0.0 140 / 81006.4 0.9
2014-Jul-19 00:00S 64°42' W 065°12'3 2.6 140 / 81006.4 0.9
2014-Jul-18 23:00S 64°42' W 065°06'13 6.4 140 / 81006.4 0.9
2014-Jul-18 21:00S 64°42' W 064°36'5 5.1 140 / 81006.4 0.9
2014-Jul-18 20:00S 64°42' W 064°24'5 5.1 140 / 81006.4 0.9
2014-Jul-18 19:00S 64°42' W 064°12'5 5.1 140 / 81006.4 0.9
2014-Jul-18 18:00S 64°42' W 064°00'5 5.1 140 / 81006.4 0.9
2014-Jul-18 17:00S 64°42' W 063°48'10 5.1 140 / 81006.4 0.9
2014-Jul-18 15:00S 64°42' W 063°24'3 1.3 140 / 81006.4 0.9
2014-Jul-18 13:00S 64°42' W 063°30'5 5.1 140 / 81006.4 0.9
2014-Jul-18 12:00S 64°42' W 063°42'3 2.6 140 / 81006.4 0.9
2014-Jul-18 11:00S 64°42' W 063°36'7 6.5 140 / 81006.4 0.9
2014-Jul-18 10:00S 64°48' W 063°30'8 7.9 140 / 81006.4 0.9
2014-Jul-18 09:00S 64°42' W 063°42'5 5.1 140 / 81006.4 0.9
2014-Jul-18 08:00S 64°42' W 063°54'5 5.1 140 / 81006.4 0.9
2014-Jul-18 07:00S 64°42' W 063°42'5 5.1 140 / 81006.4 0.9
2014-Jul-18 06:00S 64°42' W 063°30'3 2.6 140 / 81006.4 0.9
2014-Jul-18 05:00S 64°42' W 063°24'7 6.5 140 / 81006.4 0.9
2014-Jul-18 04:00S 64°36' W 063°18'3 2.6 140 / 81006.4 0.9
2014-Jul-18 03:00S 64°36' W 063°12'3 2.6 140 / 81006.4 0.9
2014-Jul-18 02:00S 64°36' W 063°18'3 2.6 140 / 81006.4 0.9
2014-Jul-18 01:00S 64°36' W 063°24'6 3.0 140 / 81006.4 0.9
2014-Jul-17 23:00S 64°42' W 063°24'0 0.0 170 / 111006.2 0.9
2014-Jul-17 21:00S 64°42' W 063°24'0 0.0 160 / 91006.3 1.0
2014-Jul-17 20:00S 64°42' W 063°24'3 1.3 260 / 131006.3 0.9
2014-Jul-17 18:00S 64°42' W 063°30'0 0.0 250 / 151005.1 0.9
2014-Jul-17 17:00S 64°42' W 063°30'0 0.0 170 / 141004.7 0.9
2014-Jul-17 16:00S 64°42' W 063°30'0 0.0 160 / 171004.1 0.8
2014-Jul-17 15:00S 64°42' W 063°30'5 5.1 240 / 41003.6 0.8
2014-Jul-17 14:00S 64°42' W 063°42'10 9.7 220 / 271002.7 0.8
2014-Jul-17 13:00S 64°48' W 063°24'14 4.7 250 / 301000.5 0.4
2014-Jul-17 10:00S 64°42' W 063°54'8 7.7 180 / 181001.4 0.9
2014-Jul-17 09:00S 64°42' W 063°36'10 9.8 230 / 25999.8 -9.4 0.8
2014-Jul-17 08:00S 64°36' W 063°18'8 7.7 220 / 28998.9 -8.3 0.6
2014-Jul-17 07:00S 64°36' W 063°00'3 2.6 230 / 22997.0 -8.8 0.5
2014-Jul-17 06:00S 64°36' W 062°54'3 1.3 230 / 34995.9 -8.0 0.4
2014-Jul-17 04:00S 64°36' W 063°00'3 2.6 230 / 25994.5 -6.5 0.4
2014-Jul-17 03:00S 64°36' W 062°54'0 0.0 220 / 29993.1 -5.8 0.4
2014-Jul-17 02:00S 64°36' W 062°54'14 7.1 220 / 25993.2 -5.5 0.4
2014-Jul-17 00:00S 64°48' W 063°12'8 7.9 210 / 23991.3 -5.7 0.5
2014-Jul-16 23:00S 64°42' W 063°00'7 6.5 230 / 43987.2 -5.4 0.5
2014-Jul-16 22:00S 64°36' W 062°54'5 5.1 200 / 28986.8 -2.7 0.4
2014-Jul-16 21:00S 64°36' W 063°06'10 9.8 230 / 13986.6 1.3 0.6
2014-Jul-16 20:00S 64°42' W 063°24'3 2.6 300 / 26986.7 0.8 0.6
2014-Jul-16 19:00S 64°42' W 063°30'14 4.7 310 / 32987.5 0.8 0.7
2014-Jul-16 16:00S 64°36' W 063°00'3 2.6 010 / 2989.5 -0.1 0.4
2014-Jul-16 15:00S 64°36' W 062°54'0 0.0 090 / 8991.3 -0.7 0.5
2014-Jul-16 14:00S 64°36' W 062°54'0 0.0 100 / 6992.7 -0.4 0.5
2014-Jul-16 13:00S 64°36' W 062°54'8 1.3 050 / 3994.0 -0.4 0.4
2014-Jul-16 07:00S 64°42' W 063°06'8 2.6 020 / 16998.7 -4.8 0.6
2014-Jul-16 04:00S 64°36' W 062°54'0 0.0 060 / 251000.8 -6.6 0.7
2014-Jul-16 03:00S 64°36' W 062°54'0 0.0 090 / 41001.5 -7.4 0.7
2014-Jul-16 00:00S 64°36' W 062°54'   060 / 61002.0 0.7

Dump ship's entire track history